createdAt,value
2023-05-09T00:00:46.491Z,8.70
2023-05-09T00:03:14.348Z,8.70
2023-05-09T00:05:41.881Z,8.60
2023-05-09T00:08:08.802Z,8.50
2023-05-09T00:10:35.720Z,8.40
2023-05-09T00:13:02.626Z,8.40
2023-05-09T00:15:30.421Z,8.30
2023-05-09T00:17:57.253Z,8.30
2023-05-09T00:20:24.169Z,8.20
2023-05-09T00:22:51.202Z,8.20
2023-05-09T00:25:18.016Z,8.10
2023-05-09T00:27:44.784Z,8.10
2023-05-09T00:30:11.852Z,8.10
2023-05-09T00:32:40.257Z,8.10
2023-05-09T00:35:08.655Z,8.20
2023-05-09T00:37:35.441Z,8.20
2023-05-09T00:40:03.007Z,8.10
2023-05-09T00:42:29.844Z,8.10
2023-05-09T00:44:56.726Z,8.00
2023-05-09T00:47:24.285Z,8.00
2023-05-09T00:49:51.189Z,8.00
2023-05-09T00:52:21.493Z,7.90
2023-05-09T00:54:48.240Z,7.90
2023-05-09T00:57:14.971Z,7.80
2023-05-09T00:59:42.012Z,7.80
2023-05-09T01:02:08.773Z,7.80
2023-05-09T01:04:35.793Z,7.70
2023-05-09T01:07:20.674Z,7.80
2023-05-09T01:09:59.460Z,7.80
2023-05-09T01:12:47.865Z,7.80
2023-05-09T01:15:34.316Z,7.80
2023-05-09T01:18:14.682Z,7.80
2023-05-09T01:21:08.836Z,7.70
2023-05-09T01:23:44.811Z,7.70
2023-05-09T01:26:32.545Z,7.60
2023-05-09T01:29:27.851Z,7.60
2023-05-09T01:31:56.680Z,7.50
2023-05-09T01:34:26.787Z,7.50
2023-05-09T01:36:58.737Z,7.50
2023-05-09T01:39:28.371Z,7.50
2023-05-09T01:41:57.932Z,7.50
2023-05-09T01:44:26.772Z,7.60
2023-05-09T01:46:55.959Z,7.60
2023-05-09T01:49:23.938Z,7.50
2023-05-09T01:51:52.304Z,7.50
2023-05-09T01:54:20.751Z,7.60
2023-05-09T01:56:48.537Z,7.60
2023-05-09T01:59:16.313Z,7.60
2023-05-09T02:01:44.757Z,7.60
2023-05-09T02:04:12.806Z,7.60
2023-05-09T02:06:40.768Z,7.70
2023-05-09T02:09:08.451Z,7.70
2023-05-09T02:11:35.200Z,7.70
2023-05-09T02:14:01.965Z,7.60
2023-05-09T02:16:30.052Z,7.70
2023-05-09T02:18:56.826Z,7.60
2023-05-09T02:21:23.706Z,7.60
2023-05-09T02:23:50.574Z,7.70
2023-05-09T02:26:17.804Z,7.70
2023-05-09T02:28:45.604Z,7.70
2023-05-09T02:31:14.044Z,7.70
2023-05-09T02:33:42.826Z,7.70
2023-05-09T02:36:10.366Z,7.80
2023-05-09T02:38:37.399Z,7.80
2023-05-09T02:41:04.226Z,7.80
2023-05-09T02:43:31.040Z,7.90
2023-05-09T02:45:57.956Z,7.90
2023-05-09T02:48:24.819Z,7.90
2023-05-09T02:50:51.539Z,8.00
2023-05-09T02:53:18.289Z,8.10
2023-05-09T02:55:45.142Z,8.10
2023-05-09T02:58:14.633Z,8.10
2023-05-09T03:00:42.659Z,8.10
2023-05-09T03:03:09.965Z,8.20
2023-05-09T03:05:37.236Z,8.20
2023-05-09T03:08:04.284Z,8.20
2023-05-09T03:10:31.082Z,8.20
2023-05-09T03:12:57.932Z,8.20
2023-05-09T03:15:24.803Z,8.20
2023-05-09T03:17:51.725Z,8.20
2023-05-09T03:20:19.112Z,8.20
2023-05-09T03:22:45.933Z,8.20
2023-05-09T03:25:13.120Z,8.20
2023-05-09T03:27:40.414Z,8.20
2023-05-09T03:30:07.757Z,8.20
2023-05-09T03:32:34.662Z,8.20
2023-05-09T03:35:01.538Z,8.20
2023-05-09T03:37:28.452Z,8.30
2023-05-09T03:39:55.287Z,8.30
2023-05-09T03:42:22.979Z,8.30
2023-05-09T03:44:49.788Z,8.30
2023-05-09T03:47:16.662Z,8.30
2023-05-09T03:49:43.479Z,8.30
2023-05-09T03:52:10.415Z,8.30
2023-05-09T03:54:37.179Z,8.30
2023-05-09T03:57:04.087Z,8.30
2023-05-09T03:59:30.850Z,8.30
2023-05-09T04:01:58.776Z,8.30
2023-05-09T04:04:25.647Z,8.30
2023-05-09T04:06:52.481Z,8.40
2023-05-09T04:09:19.373Z,8.40
2023-05-09T04:11:46.702Z,8.40
2023-05-09T04:14:13.665Z,8.40
2023-05-09T04:16:40.489Z,8.50
2023-05-09T04:19:07.522Z,8.50
2023-05-09T04:21:34.336Z,8.50
2023-05-09T04:24:01.240Z,8.60
2023-05-09T04:26:28.187Z,8.60
2023-05-09T04:28:55.007Z,8.60
2023-05-09T04:31:23.084Z,8.70
2023-05-09T04:33:49.896Z,8.70
2023-05-09T04:36:17.074Z,8.70
2023-05-09T04:38:43.842Z,8.80
2023-05-09T04:41:10.954Z,8.80
2023-05-09T04:43:37.750Z,8.80
2023-05-09T04:46:04.583Z,8.90
2023-05-09T04:48:31.515Z,8.90
2023-05-09T04:50:58.297Z,8.90
2023-05-09T04:53:25.016Z,9.00
2023-05-09T04:55:51.991Z,9.00
2023-05-09T04:58:18.984Z,9.10
2023-05-09T05:00:46.468Z,9.10
2023-05-09T05:03:13.471Z,9.10
2023-05-09T05:05:41.500Z,9.20
2023-05-09T05:08:08.296Z,9.20
2023-05-09T05:10:35.452Z,9.20
2023-05-09T05:13:02.426Z,9.30
2023-05-09T05:15:29.334Z,9.30
2023-05-09T05:17:56.755Z,9.30
2023-05-09T05:20:23.786Z,9.40
2023-05-09T05:22:50.666Z,9.40
2023-05-09T05:25:18.627Z,9.40
2023-05-09T05:27:45.529Z,9.50
2023-05-09T05:30:15.384Z,9.50
2023-05-09T05:32:42.543Z,9.60
2023-05-09T05:35:11.938Z,9.70
2023-05-09T05:37:40.330Z,9.70
2023-05-09T05:40:08.196Z,9.80
2023-05-09T05:42:35.232Z,9.80
2023-05-09T05:45:04.404Z,9.90
2023-05-09T05:47:35.563Z,10.00
2023-05-09T05:50:04.315Z,10.10
2023-05-09T05:52:31.382Z,10.20
2023-05-09T05:54:58.331Z,10.20
2023-05-09T05:57:25.277Z,10.30
2023-05-09T05:59:52.039Z,10.40
2023-05-09T06:02:18.998Z,10.50
2023-05-09T06:04:45.943Z,10.70
2023-05-09T06:07:14.105Z,10.90
2023-05-09T06:09:41.045Z,11.10
2023-05-09T06:12:08.023Z,11.40
2023-05-09T06:14:34.932Z,11.90
2023-05-09T06:17:01.749Z,12.20
2023-05-09T06:19:28.614Z,12.70
2023-05-09T06:21:55.542Z,13.00
2023-05-09T06:24:34.609Z,13.50
2023-05-09T06:27:02.342Z,13.90
2023-05-09T06:29:29.164Z,14.50
2023-05-09T06:31:55.961Z,15.20
2023-05-09T06:34:22.860Z,15.70
2023-05-09T06:36:49.705Z,16.20
2023-05-09T06:39:16.526Z,16.60
2023-05-09T06:41:43.294Z,17.20
2023-05-09T06:44:10.366Z,17.90
2023-05-09T06:46:37.178Z,18.60
2023-05-09T06:49:04.079Z,19.10
2023-05-09T06:51:31.057Z,19.50
2023-05-09T06:53:57.946Z,19.90
2023-05-09T06:56:25.330Z,20.50
2023-05-09T06:58:52.120Z,20.90
2023-05-09T07:01:18.976Z,21.00
2023-05-09T07:03:47.501Z,21.40
2023-05-09T07:06:14.501Z,21.70
2023-05-09T07:08:41.353Z,21.50
2023-05-09T07:11:08.197Z,21.90
2023-05-09T07:13:34.986Z,22.20
2023-05-09T07:16:01.917Z,22.10
2023-05-09T07:18:29.804Z,21.90
2023-05-09T07:21:02.021Z,22.00
2023-05-09T07:23:28.917Z,21.90
2023-05-09T07:25:58.947Z,21.80
2023-05-09T07:28:26.328Z,22.00
2023-05-09T07:30:55.912Z,22.20
2023-05-09T07:33:22.842Z,22.60
2023-05-09T07:35:49.880Z,22.80
2023-05-09T07:38:16.727Z,23.10
2023-05-09T07:40:43.523Z,23.30
2023-05-09T07:43:10.666Z,23.60
2023-05-09T07:45:37.479Z,23.80
2023-05-09T07:48:04.624Z,24.00
2023-05-09T07:50:31.569Z,24.20
2023-05-09T07:52:58.481Z,24.00
2023-05-09T07:55:25.325Z,24.30
2023-05-09T07:57:52.184Z,24.40
2023-05-09T08:00:23.738Z,24.60
2023-05-09T08:02:51.821Z,24.60
2023-05-09T08:05:19.053Z,24.50
2023-05-09T08:07:46.240Z,24.70
2023-05-09T08:10:13.373Z,24.70
2023-05-09T08:12:40.236Z,24.70
2023-05-09T08:15:07.987Z,25.00
2023-05-09T08:17:34.806Z,24.80
2023-05-09T08:20:01.683Z,25.10
2023-05-09T08:22:28.449Z,25.10
2023-05-09T08:24:55.250Z,25.20
2023-05-09T08:27:21.997Z,24.90
2023-05-09T08:29:48.821Z,24.80
2023-05-09T08:32:15.611Z,25.00
2023-05-09T08:34:42.442Z,25.30
2023-05-09T08:37:09.238Z,25.80
2023-05-09T08:39:36.059Z,25.90
2023-05-09T08:42:03.391Z,25.80
2023-05-09T08:44:31.448Z,26.00
2023-05-09T08:47:03.530Z,26.00
2023-05-09T08:49:30.777Z,25.90
2023-05-09T08:51:57.996Z,25.40
2023-05-09T08:54:25.249Z,25.50
2023-05-09T08:56:52.233Z,25.90
2023-05-09T08:59:19.736Z,26.40
2023-05-09T09:01:47.561Z,26.30
2023-05-09T09:04:14.765Z,26.50
2023-05-09T09:06:42.763Z,26.60
2023-05-09T09:09:11.530Z,26.60
2023-05-09T09:11:40.296Z,27.30
2023-05-09T09:14:15.337Z,27.60
2023-05-09T09:16:43.607Z,27.80
2023-05-09T09:19:13.334Z,28.00
2023-05-09T09:21:49.741Z,28.10
2023-05-09T09:24:20.307Z,27.50
2023-05-09T09:26:48.924Z,27.80
2023-05-09T09:29:16.974Z,27.80
2023-05-09T09:31:48.237Z,27.90
2023-05-09T09:34:24.120Z,27.90
2023-05-09T09:36:51.572Z,28.30
2023-05-09T09:39:18.540Z,28.40
2023-05-09T09:41:45.658Z,28.40
2023-05-09T09:44:13.917Z,28.20
2023-05-09T09:46:46.657Z,28.30
2023-05-09T09:49:14.879Z,28.40
2023-05-09T09:51:42.428Z,28.70
2023-05-09T09:54:11.311Z,28.60
2023-05-09T09:56:42.681Z,28.60
2023-05-09T09:59:17.545Z,29.20
2023-05-09T10:02:01.573Z,29.00
2023-05-09T10:04:35.442Z,29.20
2023-05-09T10:07:05.121Z,29.00
2023-05-09T10:09:33.928Z,29.20
2023-05-09T10:12:06.515Z,29.30
2023-05-09T10:14:36.332Z,29.30
2023-05-09T10:17:05.228Z,29.80
2023-05-09T10:19:32.989Z,29.90
2023-05-09T10:22:05.321Z,30.10
2023-05-09T10:24:47.583Z,29.80
2023-05-09T10:27:17.900Z,29.90
2023-05-09T10:30:17.106Z,30.20
2023-05-09T10:32:49.762Z,30.40
2023-05-09T10:35:18.301Z,30.70
2023-05-09T10:37:48.581Z,30.20
2023-05-09T10:40:15.905Z,30.50
2023-05-09T10:42:43.886Z,29.90
2023-05-09T10:45:14.136Z,30.20
2023-05-09T10:47:43.475Z,30.60
2023-05-09T10:50:14.652Z,30.40
2023-05-09T10:53:14.011Z,30.60
2023-05-09T10:55:46.863Z,30.80
2023-05-09T10:58:22.857Z,31.20
2023-05-09T11:00:51.212Z,31.00
2023-05-09T11:03:19.445Z,31.00
2023-05-09T11:05:48.761Z,30.90
2023-05-09T11:08:28.644Z,30.40
2023-05-09T11:10:57.967Z,30.00
2023-05-09T11:13:26.389Z,30.30
2023-05-09T11:16:02.217Z,30.40
2023-05-09T11:18:30.107Z,30.50
2023-05-09T11:20:57.053Z,30.10
2023-05-09T11:23:27.857Z,29.70
2023-05-09T11:26:06.488Z,29.60
2023-05-09T11:28:36.651Z,30.40
2023-05-09T11:31:18.263Z,29.40
2023-05-09T11:33:49.078Z,29.10
2023-05-09T11:36:18.659Z,29.00
2023-05-09T11:38:47.208Z,29.20
2023-05-09T11:41:14.317Z,30.00
2023-05-09T11:43:43.090Z,30.80
2023-05-09T11:46:10.017Z,31.20
2023-05-09T11:48:41.881Z,31.50
2023-05-09T11:51:18.357Z,31.70
2023-05-09T11:53:51.295Z,32.00
2023-05-09T11:56:18.474Z,31.70
2023-05-09T11:58:46.757Z,31.70
2023-05-09T12:01:13.696Z,30.90
2023-05-09T12:03:47.460Z,31.00
2023-05-09T12:06:16.770Z,30.90
2023-05-09T12:08:47.156Z,30.70
2023-05-09T12:11:15.331Z,30.70
2023-05-09T12:14:00.390Z,31.00
2023-05-09T12:16:27.208Z,31.40
2023-05-09T12:18:54.821Z,31.40
2023-05-09T12:21:22.220Z,31.20
2023-05-09T12:23:51.172Z,31.20
2023-05-09T12:26:19.162Z,30.90
2023-05-09T12:28:47.163Z,30.20
2023-05-09T12:31:14.222Z,30.60
2023-05-09T12:33:41.147Z,31.00
2023-05-09T12:36:12.648Z,31.10
2023-05-09T12:38:39.560Z,30.90
2023-05-09T12:41:10.693Z,30.50
2023-05-09T12:43:49.120Z,29.80
2023-05-09T12:46:20.223Z,29.70
2023-05-09T12:48:48.642Z,29.00
2023-05-09T12:51:20.782Z,28.60
2023-05-09T12:53:48.144Z,28.90
2023-05-09T12:56:16.519Z,29.00
2023-05-09T12:58:55.882Z,29.00
2023-05-09T13:01:29.664Z,29.00
2023-05-09T13:04:04.437Z,29.00
2023-05-09T13:06:31.271Z,29.00
2023-05-09T13:09:02.800Z,29.00
2023-05-09T13:11:30.001Z,29.30
2023-05-09T13:13:57.126Z,29.00
2023-05-09T13:16:24.285Z,27.80
2023-05-09T13:18:51.152Z,28.10
2023-05-09T13:21:18.087Z,28.10
2023-05-09T13:23:45.481Z,27.50
2023-05-09T13:26:12.500Z,27.20
2023-05-09T13:28:39.296Z,27.50
2023-05-09T13:31:06.921Z,27.60
2023-05-09T13:33:34.078Z,27.70
2023-05-09T13:36:01.081Z,27.40
2023-05-09T13:38:30.756Z,27.10
2023-05-09T13:40:57.854Z,27.00
2023-05-09T13:43:24.627Z,26.90
2023-05-09T13:45:51.463Z,26.60
2023-05-09T13:48:18.240Z,26.40
2023-05-09T13:50:45.681Z,26.60
2023-05-09T13:53:12.571Z,26.60
2023-05-09T13:55:39.391Z,26.50
2023-05-09T13:58:06.458Z,26.60
2023-05-09T14:00:33.729Z,26.30
2023-05-09T14:03:02.671Z,25.90
2023-05-09T14:05:32.066Z,25.50
2023-05-09T14:07:59.014Z,25.70
2023-05-09T14:10:26.899Z,25.90
2023-05-09T14:12:54.194Z,25.90
2023-05-09T14:15:21.043Z,26.00
2023-05-09T14:17:47.906Z,25.70
2023-05-09T14:20:16.036Z,25.70
2023-05-09T14:22:43.297Z,25.70
2023-05-09T14:25:10.252Z,25.80
2023-05-09T14:27:37.260Z,25.80
2023-05-09T14:30:05.040Z,25.90
2023-05-09T14:32:31.817Z,25.70
2023-05-09T14:34:58.795Z,25.80
2023-05-09T14:37:25.625Z,25.60
2023-05-09T14:39:52.473Z,25.60
2023-05-09T14:42:19.749Z,25.50
2023-05-09T14:44:47.315Z,25.60
2023-05-09T14:47:14.319Z,25.70
2023-05-09T14:49:41.425Z,25.60
2023-05-09T14:52:08.221Z,25.60
2023-05-09T14:54:35.092Z,25.60
2023-05-09T14:57:04.489Z,25.50
2023-05-09T14:59:31.536Z,25.50
2023-05-09T15:01:58.355Z,25.40
2023-05-09T15:04:28.422Z,25.40
2023-05-09T15:06:55.277Z,25.40
2023-05-09T15:09:22.560Z,25.30
2023-05-09T15:11:49.509Z,25.10
2023-05-09T15:14:16.819Z,25.20
2023-05-09T15:16:44.477Z,25.30
2023-05-09T15:19:11.468Z,25.30
2023-05-09T15:21:38.264Z,25.50
2023-05-09T15:24:05.492Z,25.40
2023-05-09T15:26:32.538Z,25.40
2023-05-09T15:28:59.595Z,25.50
2023-05-09T15:31:26.689Z,25.50
2023-05-09T15:33:53.737Z,25.30
2023-05-09T15:36:20.522Z,25.30
2023-05-09T15:38:49.436Z,25.00
2023-05-09T15:41:20.057Z,25.00
2023-05-09T15:43:46.854Z,24.90
2023-05-09T15:46:13.702Z,24.80
2023-05-09T15:48:40.519Z,24.80
2023-05-09T15:51:08.681Z,24.50
2023-05-09T15:53:36.501Z,24.30
2023-05-09T15:56:03.792Z,23.70
2023-05-09T15:58:31.063Z,23.60
2023-05-09T16:00:57.883Z,23.50
2023-05-09T16:03:28.131Z,23.60
2023-05-09T16:05:55.081Z,23.70
2023-05-09T16:08:21.851Z,23.70
2023-05-09T16:10:49.235Z,23.70
2023-05-09T16:13:19.245Z,23.60
2023-05-09T16:15:47.891Z,23.50
2023-05-09T16:18:14.693Z,23.20
2023-05-09T16:20:43.934Z,23.20
2023-05-09T16:23:11.259Z,23.10
2023-05-09T16:25:38.062Z,23.00
2023-05-09T16:28:06.872Z,22.90
2023-05-09T16:30:33.753Z,22.90
2023-05-09T16:33:00.569Z,22.90
2023-05-09T16:35:27.491Z,22.80
2023-05-09T16:37:54.388Z,22.70
2023-05-09T16:40:21.545Z,22.70
2023-05-09T16:42:49.323Z,22.70
2023-05-09T16:45:16.271Z,22.40
2023-05-09T16:47:43.088Z,22.10
2023-05-09T16:50:10.588Z,21.80
2023-05-09T16:52:37.682Z,21.70
2023-05-09T16:55:04.816Z,21.50
2023-05-09T16:57:31.721Z,21.40
2023-05-09T16:59:58.511Z,21.20
2023-05-09T17:02:25.761Z,21.00
2023-05-09T17:04:52.663Z,20.80
2023-05-09T17:07:20.048Z,20.60
2023-05-09T17:09:48.283Z,20.50
2023-05-09T17:12:17.957Z,20.40
2023-05-09T17:14:45.720Z,20.20
2023-05-09T17:17:13.523Z,20.10
2023-05-09T17:19:40.736Z,19.90
2023-05-09T17:22:08.045Z,19.70
2023-05-09T17:24:34.932Z,19.60
2023-05-09T17:27:02.088Z,19.40
2023-05-09T17:29:30.958Z,19.30
2023-05-09T17:32:00.875Z,19.10
2023-05-09T17:34:28.902Z,19.00
2023-05-09T17:36:56.229Z,18.90
2023-05-09T17:39:23.374Z,18.70
2023-05-09T17:41:50.121Z,18.60
2023-05-09T17:44:16.930Z,18.50
2023-05-09T17:46:44.059Z,18.30
2023-05-09T17:49:13.807Z,18.20
2023-05-09T17:51:40.776Z,18.10
2023-05-09T17:54:07.634Z,18.00
2023-05-09T17:56:34.746Z,17.90
2023-05-09T17:59:01.604Z,17.80
2023-05-09T18:01:29.019Z,17.70
2023-05-09T18:03:57.145Z,17.60
2023-05-09T18:06:24.096Z,17.50
2023-05-09T18:08:50.988Z,17.50
2023-05-09T18:11:17.913Z,17.40
2023-05-09T18:13:44.666Z,17.30
2023-05-09T18:16:11.534Z,17.20
2023-05-09T18:18:38.346Z,17.10
2023-05-09T18:21:05.403Z,17.10
2023-05-09T18:23:32.257Z,17.00
2023-05-09T18:25:59.267Z,17.00
2023-05-09T18:28:26.282Z,16.90
2023-05-09T18:30:58.501Z,16.80
2023-05-09T18:33:26.609Z,16.70
2023-05-09T18:35:54.265Z,16.60
2023-05-09T18:38:21.376Z,16.60
2023-05-09T18:40:48.456Z,16.50
2023-05-09T18:43:16.868Z,16.40
2023-05-09T18:45:45.113Z,16.30
2023-05-09T18:48:12.346Z,16.30
2023-05-09T18:50:39.350Z,16.20
2023-05-09T18:53:06.128Z,16.10
2023-05-09T18:55:32.892Z,16.00
2023-05-09T18:58:00.167Z,15.90
2023-05-09T19:00:26.957Z,15.80
2023-05-09T19:02:53.866Z,15.70
2023-05-09T19:05:20.805Z,15.70
2023-05-09T19:07:47.547Z,15.60
2023-05-09T19:10:17.894Z,15.50
2023-05-09T19:12:46.030Z,15.40
2023-05-09T19:15:12.986Z,15.30
2023-05-09T19:17:40.239Z,15.30
2023-05-09T19:20:08.452Z,15.20
2023-05-09T19:22:36.159Z,15.10
2023-05-09T19:25:03.094Z,14.90
2023-05-09T19:27:29.864Z,14.80
2023-05-09T19:29:56.731Z,14.70
2023-05-09T19:32:23.511Z,14.60
2023-05-09T19:34:50.731Z,14.50
2023-05-09T19:37:17.535Z,14.40
2023-05-09T19:39:44.320Z,14.40
2023-05-09T19:42:11.180Z,14.30
2023-05-09T19:44:38.893Z,14.20
2023-05-09T19:47:05.865Z,14.20
2023-05-09T19:49:32.754Z,14.10
2023-05-09T19:51:59.614Z,14.10
2023-05-09T19:54:27.063Z,14.10
2023-05-09T19:56:53.947Z,14.10
2023-05-09T19:59:21.040Z,14.00
2023-05-09T20:01:47.889Z,14.00
2023-05-09T20:04:14.769Z,13.90
2023-05-09T20:06:41.530Z,13.90
2023-05-09T20:09:08.430Z,13.90
2023-05-09T20:11:35.230Z,13.80
2023-05-09T20:14:02.379Z,13.80
2023-05-09T20:16:29.214Z,13.70
2023-05-09T20:18:56.077Z,13.70
2023-05-09T20:21:22.880Z,13.70
2023-05-09T20:23:49.672Z,13.60
2023-05-09T20:26:16.413Z,13.60
2023-05-09T20:28:43.270Z,13.60
2023-05-09T20:31:10.151Z,13.60
2023-05-09T20:33:37.030Z,13.60
2023-05-09T20:36:06.504Z,13.60
2023-05-09T20:38:33.367Z,13.60
2023-05-09T20:41:00.065Z,13.50
2023-05-09T20:43:26.834Z,13.40
2023-05-09T20:45:54.015Z,13.30
2023-05-09T20:48:23.415Z,13.30
2023-05-09T20:50:50.551Z,13.20
2023-05-09T20:53:17.359Z,13.20
2023-05-09T20:55:44.141Z,13.10
2023-05-09T20:58:14.716Z,13.00
2023-05-09T21:00:41.586Z,13.00
2023-05-09T21:03:10.075Z,13.00
2023-05-09T21:05:37.062Z,13.00
2023-05-09T21:08:04.001Z,12.90
2023-05-09T21:10:30.946Z,12.90
2023-05-09T21:12:57.880Z,12.80
2023-05-09T21:15:24.811Z,12.80
2023-05-09T21:17:51.631Z,12.80
2023-05-09T21:20:18.740Z,12.70
2023-05-09T21:22:46.079Z,12.70
2023-05-09T21:25:12.962Z,12.70
2023-05-09T21:27:39.733Z,12.60
2023-05-09T21:30:07.285Z,12.60
2023-05-09T21:32:34.159Z,12.60
2023-05-09T21:35:02.062Z,12.60
2023-05-09T21:37:29.017Z,12.60
2023-05-09T21:39:55.770Z,12.50
2023-05-09T21:42:23.934Z,12.50
2023-05-09T21:44:50.719Z,12.50
2023-05-09T21:47:17.611Z,12.40
2023-05-09T21:49:44.429Z,12.40
2023-05-09T21:52:11.247Z,12.40
2023-05-09T21:54:38.050Z,12.30
2023-05-09T21:57:05.309Z,12.30
2023-05-09T21:59:32.883Z,12.20
2023-05-09T22:01:59.622Z,12.20
2023-05-09T22:04:26.569Z,12.10
2023-05-09T22:06:53.299Z,12.10
2023-05-09T22:09:20.181Z,12.00
2023-05-09T22:11:47.094Z,11.90
2023-05-09T22:14:13.997Z,11.90
2023-05-09T22:16:41.102Z,11.90
2023-05-09T22:19:07.921Z,11.90
2023-05-09T22:21:34.761Z,11.90
2023-05-09T22:24:01.596Z,11.80
2023-05-09T22:26:28.579Z,11.80
2023-05-09T22:28:55.400Z,11.70
2023-05-09T22:31:22.748Z,11.80
2023-05-09T22:33:49.569Z,11.70
2023-05-09T22:36:17.124Z,11.60
2023-05-09T22:38:43.981Z,11.60
2023-05-09T22:41:10.827Z,11.60
2023-05-09T22:43:39.495Z,11.50
2023-05-09T22:46:06.959Z,11.50
2023-05-09T22:48:33.772Z,11.40
2023-05-09T22:51:00.764Z,11.40
2023-05-09T22:53:28.089Z,11.40
2023-05-09T22:55:54.927Z,11.30
2023-05-09T22:58:22.447Z,11.30
2023-05-09T23:00:49.316Z,11.20
2023-05-09T23:03:16.526Z,11.20
2023-05-09T23:05:43.509Z,11.10
2023-05-09T23:08:10.559Z,11.10
2023-05-09T23:10:37.348Z,11.00
2023-05-09T23:13:04.801Z,11.00
2023-05-09T23:15:31.802Z,11.00
2023-05-09T23:17:58.757Z,11.00
2023-05-09T23:20:26.549Z,10.90
2023-05-09T23:22:53.270Z,10.90
2023-05-09T23:25:20.160Z,10.80
2023-05-09T23:27:47.037Z,10.80
2023-05-09T23:30:14.265Z,10.70
2023-05-09T23:32:41.248Z,10.70
2023-05-09T23:35:08.322Z,10.60
2023-05-09T23:37:35.058Z,10.60
2023-05-09T23:40:03.812Z,10.60
2023-05-09T23:42:30.890Z,10.50
2023-05-09T23:44:57.735Z,10.60
2023-05-09T23:47:24.651Z,10.60
2023-05-09T23:49:51.428Z,10.60
2023-05-09T23:52:18.190Z,10.50
2023-05-09T23:54:44.978Z,10.50
2023-05-09T23:57:11.692Z,10.50
2023-05-09T23:59:38.480Z,10.50
